sensor_id;sensor_type;location;lat;lon;timestamp;pressure;altitude;pressure_sealevel;temperature;humidity
58975;BME280;44751;52.236;5.178;2022-10-16T05:05:00;100900.25;;;12.26;100.00
58975;BME280;44751;52.236;5.178;2022-10-16T05:07:27;100906.94;;;12.31;100.00
58975;BME280;44751;52.236;5.178;2022-10-16T05:09:53;100909.47;;;12.32;100.00
58975;BME280;44751;52.236;5.178;2022-10-16T05:12:20;100914.69;;;12.34;100.00
58975;BME280;44751;52.236;5.178;2022-10-16T05:14:46;100919.84;;;12.29;100.00
58975;BME280;44751;52.236;5.178;2022-10-16T05:17:12;100922.00;;;12.18;100.00
58975;BME280;44751;52.236;5.178;2022-10-16T05:19:42;100921.63;;;12.21;100.00
58975;BME280;44751;52.236;5.178;2022-10-16T05:22:09;100934.84;;;12.31;100.00
58975;BME280;44751;52.236;5.178;2022-10-16T05:24:35;100927.28;;;12.26;100.00
58975;BME280;44751;52.236;5.178;2022-10-16T05:27:01;100931.69;;;12.27;100.00
58975;BME280;44751;52.236;5.178;2022-10-16T05:29:28;100943.16;;;12.30;100.00
58975;BME280;44751;52.236;5.178;2022-10-16T05:31:57;100947.16;;;12.34;100.00
58975;BME280;44751;52.236;5.178;2022-10-16T05:34:23;100950.91;;;12.33;100.00
58975;BME280;44751;52.236;5.178;2022-10-16T05:36:50;100953.41;;;12.34;100.00
58975;BME280;44751;52.236;5.178;2022-10-16T05:39:17;100957.63;;;12.37;100.00
58975;BME280;44751;52.236;5.178;2022-10-16T05:41:44;100962.28;;;12.28;100.00
58975;BME280;44751;52.236;5.178;2022-10-16T05:44:10;100963.13;;;12.29;100.00
58975;BME280;44751;52.236;5.178;2022-10-16T05:46:37;100964.63;;;12.31;100.00
58975;BME280;44751;52.236;5.178;2022-10-16T05:49:03;100965.28;;;12.33;100.00
58975;BME280;44751;52.236;5.178;2022-10-16T05:51:30;100971.31;;;12.35;100.00
58975;BME280;44751;52.236;5.178;2022-10-16T05:53:56;100975.44;;;12.31;100.00
58975;BME280;44751;52.236;5.178;2022-10-16T05:56:23;100985.13;;;12.25;100.00
58975;BME280;44751;52.236;5.178;2022-10-16T05:58:55;100992.31;;;12.18;100.00
58975;BME280;44751;52.236;5.178;2022-10-16T06:01:22;100989.72;;;12.25;100.00
58975;BME280;44751;52.236;5.178;2022-10-16T06:03:52;100995.41;;;12.15;100.00
58975;BME280;44751;52.236;5.178;2022-10-16T06:06:21;101004.06;;;12.10;100.00
58975;BME280;44751;52.236;5.178;2022-10-16T06:08:53;101013.59;;;12.06;100.00
58975;BME280;44751;52.236;5.178;2022-10-16T06:11:25;101017.84;;;12.00;100.00
58975;BME280;44751;52.236;5.178;2022-10-16T06:13:57;101024.28;;;11.99;100.00
58975;BME280;44751;52.236;5.178;2022-10-16T06:16:35;101011.13;;;11.96;100.00
58975;BME280;44751;52.236;5.178;2022-10-16T06:19:03;101019.50;;;11.86;100.00
58975;BME280;44751;52.236;5.178;2022-10-16T06:21:31;101010.00;;;11.91;100.00
58975;BME280;44751;52.236;5.178;2022-10-16T06:24:01;101028.06;;;11.90;100.00
58975;BME280;44751;52.236;5.178;2022-10-16T06:26:30;101014.66;;;11.97;100.00
58975;BME280;44751;52.236;5.178;2022-10-16T06:28:58;101004.69;;;11.97;100.00
58975;BME280;44751;52.236;5.178;2022-10-16T06:34:25;101020.91;;;11.97;100.00
58975;BME280;44751;52.236;5.178;2022-10-16T06:37:06;101021.09;;;11.96;100.00
58975;BME280;44751;52.236;5.178;2022-10-16T06:39:33;101027.44;;;11.88;100.00
58975;BME280;44751;52.236;5.178;2022-10-16T06:41:59;101017.63;;;11.87;100.00
58975;BME280;44751;52.236;5.178;2022-10-16T06:44:25;101032.66;;;11.90;100.00
58975;BME280;44751;52.236;5.178;2022-10-16T06:47:05;101030.59;;;11.92;100.00
58975;BME280;44751;52.236;5.178;2022-10-16T06:49:32;101032.16;;;11.86;100.00
58975;BME280;44751;52.236;5.178;2022-10-16T06:51:58;101031.91;;;11.96;100.00
58975;BME280;44751;52.236;5.178;2022-10-16T06:54:30;101035.16;;;11.91;100.00
58975;BME280;44751;52.236;5.178;2022-10-16T06:57:01;101035.34;;;11.90;100.00
58975;BME280;44751;52.236;5.178;2022-10-16T06:59:27;101037.78;;;11.99;100.00
58975;BME280;44751;52.236;5.178;2022-10-16T07:01:54;101044.28;;;11.90;100.00
58975;BME280;44751;52.236;5.178;2022-10-16T07:04:20;101058.22;;;12.02;100.00
58975;BME280;44751;52.236;5.178;2022-10-16T07:06:47;101061.28;;;11.99;100.00
58975;BME280;44751;52.236;5.178;2022-10-16T07:09:13;101064.78;;;12.08;100.00
58975;BME280;44751;52.236;5.178;2022-10-16T07:11:40;101070.28;;;12.14;100.00
58975;BME280;44751;52.236;5.178;2022-10-16T07:14:18;101084.91;;;12.05;100.00
58975;BME280;44751;52.236;5.178;2022-10-16T07:16:58;101089.59;;;12.11;100.00
58975;BME280;44751;52.236;5.178;2022-10-16T07:19:24;101085.25;;;12.02;100.00
58975;BME280;44751;52.236;5.178;2022-10-16T07:21:50;101094.63;;;12.14;100.00
58975;BME280;44751;52.236;5.178;2022-10-16T07:24:17;101098.84;;;12.17;100.00
58975;BME280;44751;52.236;5.178;2022-10-16T07:26:48;101104.25;;;12.17;100.00
58975;BME280;44751;52.236;5.178;2022-10-16T07:29:18;101100.03;;;12.14;100.00
58975;BME280;44751;52.236;5.178;2022-10-16T07:31:46;101118.69;;;12.09;100.00
58975;BME280;44751;52.236;5.178;2022-10-16T07:34:15;101111.78;;;12.07;100.00
58975;BME280;44751;52.236;5.178;2022-10-16T07:37:03;101123.63;;;12.06;100.00
58975;BME280;44751;52.236;5.178;2022-10-16T07:39:30;101119.28;;;11.96;100.00
58975;BME280;44751;52.236;5.178;2022-10-16T07:41:58;101135.16;;;11.99;100.00
58975;BME280;44751;52.236;5.178;2022-10-16T07:44:27;101143.72;;;12.03;100.00
58975;BME280;44751;52.236;5.178;2022-10-16T07:46:54;101160.78;;;12.27;100.00
58975;BME280;44751;52.236;5.178;2022-10-16T07:49:20;101150.16;;;12.25;100.00
58975;BME280;44751;52.236;5.178;2022-10-16T07:51:47;101158.69;;;12.37;100.00
58975;BME280;44751;52.236;5.178;2022-10-16T07:54:15;101155.13;;;12.37;100.00
58975;BME280;44751;52.236;5.178;2022-10-16T07:56:42;101162.53;;;12.43;100.00
58975;BME280;44751;52.236;5.178;2022-10-16T07:59:09;101161.50;;;12.59;100.00
58975;BME280;44751;52.236;5.178;2022-10-16T08:01:36;101167.38;;;12.63;100.00
58975;BME280;44751;52.236;5.178;2022-10-16T08:04:02;101166.72;;;12.46;100.00
58975;BME280;44751;52.236;5.178;2022-10-16T08:06:35;101174.84;;;12.61;100.00
58975;BME280;44751;52.236;5.178;2022-10-16T08:09:09;101176.16;;;12.65;100.00
58975;BME280;44751;52.236;5.178;2022-10-16T08:11:35;101180.84;;;12.71;100.00
58975;BME280;44751;52.236;5.178;2022-10-16T08:14:02;101174.59;;;12.71;100.00
58975;BME280;44751;52.236;5.178;2022-10-16T08:16:36;101186.34;;;12.78;100.00
58975;BME280;44751;52.236;5.178;2022-10-16T08:19:03;101201.38;;;12.81;100.00
58975;BME280;44751;52.236;5.178;2022-10-16T08:21:29;101198.50;;;12.82;100.00
58975;BME280;44751;52.236;5.178;2022-10-16T08:23:56;101198.31;;;12.99;100.00
58975;BME280;44751;52.236;5.178;2022-10-16T08:26:27;101200.84;;;13.00;100.00
58975;BME280;44751;52.236;5.178;2022-10-16T08:28:55;101195.50;;;13.07;100.00
58975;BME280;44751;52.236;5.178;2022-10-16T08:31:22;101203.19;;;13.03;100.00
58975;BME280;44751;52.236;5.178;2022-10-16T08:33:49;101208.22;;;13.22;100.00
58975;BME280;44751;52.236;5.178;2022-10-16T08:36:17;101202.50;;;13.16;100.00
58975;BME280;44751;52.236;5.178;2022-10-16T08:38:47;101210.91;;;13.22;100.00
58975;BME280;44751;52.236;5.178;2022-10-16T08:50:10;101220.69;;;13.53;100.00
58975;BME280;44751;52.236;5.178;2022-10-16T08:52:51;101219.97;;;13.59;100.00
58975;BME280;44751;52.236;5.178;2022-10-16T08:55:41;101236.66;;;13.63;100.00
58975;BME280;44751;52.236;5.178;2022-10-16T08:58:17;101222.38;;;13.69;100.00
58975;BME280;44751;52.236;5.178;2022-10-16T09:00:50;101241.03;;;13.79;100.00
58975;BME280;44751;52.236;5.178;2022-10-16T09:03:32;101251.47;;;13.97;100.00
58975;BME280;44751;52.236;5.178;2022-10-16T09:09:06;101245.50;;;13.87;100.00
58975;BME280;44751;52.236;5.178;2022-10-16T09:11:55;101262.38;;;13.82;100.00
58975;BME280;44751;52.236;5.178;2022-10-16T09:20:16;101274.69;;;13.85;100.00
58975;BME280;44751;52.236;5.178;2022-10-16T09:25:32;101292.53;;;13.94;100.00
58975;BME280;44751;52.236;5.178;2022-10-16T09:27:59;101293.56;;;13.93;100.00
58975;BME280;44751;52.236;5.178;2022-10-16T09:30:29;101277.38;;;14.00;100.00
58975;BME280;44751;52.236;5.178;2022-10-16T09:32:58;101278.91;;;14.09;100.00
58975;BME280;44751;52.236;5.178;2022-10-16T09:35:45;101292.34;;;14.17;100.00
58975;BME280;44751;52.236;5.178;2022-10-16T09:38:30;101285.97;;;14.25;100.00
58975;BME280;44751;52.236;5.178;2022-10-16T09:41:03;101292.84;;;14.21;100.00
58975;BME280;44751;52.236;5.178;2022-10-16T09:43:41;101292.25;;;14.48;100.00
58975;BME280;44751;52.236;5.178;2022-10-16T09:46:25;101302.00;;;14.64;100.00
58975;BME280;44751;52.236;5.178;2022-10-16T09:48:55;101292.03;;;14.71;100.00
58975;BME280;44751;52.236;5.178;2022-10-16T09:51:35;101301.94;;;14.79;100.00
58975;BME280;44751;52.236;5.178;2022-10-16T09:54:14;101298.19;;;14.80;100.00
58975;BME280;44751;52.236;5.178;2022-10-16T09:56:48;101299.91;;;14.88;100.00
58975;BME280;44751;52.236;5.178;2022-10-16T09:59:21;101299.22;;;14.79;100.00
58975;BME280;44751;52.236;5.178;2022-10-16T10:01:53;101299.44;;;14.77;100.00
58975;BME280;44751;52.236;5.178;2022-10-16T10:04:22;101301.13;;;14.78;100.00
58975;BME280;44751;52.236;5.178;2022-10-16T10:06:55;101293.69;;;14.72;100.00
58975;BME280;44751;52.236;5.178;2022-10-16T10:09:22;101304.75;;;14.70;100.00
58975;BME280;44751;52.236;5.178;2022-10-16T10:11:56;101297.16;;;14.81;100.00
58975;BME280;44751;52.236;5.178;2022-10-16T10:14:30;101309.75;;;14.89;100.00
58975;BME280;44751;52.236;5.178;2022-10-16T10:19:44;101315.25;;;14.95;100.00
58975;BME280;44751;52.236;5.178;2022-10-16T10:22:32;101315.75;;;14.77;100.00
58975;BME280;44751;52.236;5.178;2022-10-16T10:28:18;101324.03;;;15.26;100.00
58975;BME280;44751;52.236;5.178;2022-10-16T10:36:16;101339.88;;;14.72;100.00
58975;BME280;44751;52.236;5.178;2022-10-16T10:39:00;101341.63;;;14.58;100.00
58975;BME280;44751;52.236;5.178;2022-10-16T10:41:46;101346.88;;;14.59;100.00
58975;BME280;44751;52.236;5.178;2022-10-16T10:47:44;101346.97;;;14.88;100.00
58975;BME280;44751;52.236;5.178;2022-10-16T10:50:30;101353.03;;;15.19;100.00
58975;BME280;44751;52.236;5.178;2022-10-16T10:53:25;101340.94;;;15.21;100.00
58975;BME280;44751;52.236;5.178;2022-10-16T10:58:57;101361.03;;;14.98;100.00
58975;BME280;44751;52.236;5.178;2022-10-16T11:02:00;101356.72;;;15.11;100.00
58975;BME280;44751;52.236;5.178;2022-10-16T11:04:54;101364.50;;;15.14;100.00
58975;BME280;44751;52.236;5.178;2022-10-16T11:07:33;101364.06;;;15.10;100.00
58975;BME280;44751;52.236;5.178;2022-10-16T11:15:47;101369.38;;;14.97;100.00
58975;BME280;44751;52.236;5.178;2022-10-16T11:18:38;101365.03;;;15.03;100.00
58975;BME280;44751;52.236;5.178;2022-10-16T11:21:13;101364.59;;;14.99;100.00
58975;BME280;44751;52.236;5.178;2022-10-16T11:23:49;101374.69;;;15.05;100.00
58975;BME280;44751;52.236;5.178;2022-10-16T11:26:36;101376.47;;;15.20;100.00
58975;BME280;44751;52.236;5.178;2022-10-16T11:29:12;101379.19;;;15.20;100.00
58975;BME280;44751;52.236;5.178;2022-10-16T11:32:04;101376.47;;;15.20;100.00
58975;BME280;44751;52.236;5.178;2022-10-16T11:34:43;101378.84;;;15.30;100.00
58975;BME280;44751;52.236;5.178;2022-10-16T11:37:17;101370.75;;;15.43;100.00
58975;BME280;44751;52.236;5.178;2022-10-16T11:39:46;101374.00;;;15.60;100.00
58975;BME280;44751;52.236;5.178;2022-10-16T11:42:37;101381.59;;;15.65;100.00
58975;BME280;44751;52.236;5.178;2022-10-16T11:48:28;101390.53;;;15.59;100.00
58975;BME280;44751;52.236;5.178;2022-10-16T11:50:56;101387.00;;;15.58;100.00
58975;BME280;44751;52.236;5.178;2022-10-16T11:56:03;101385.53;;;15.62;100.00
58975;BME280;44751;52.236;5.178;2022-10-16T12:01:41;101395.09;;;15.52;100.00
58975;BME280;44751;52.236;5.178;2022-10-16T12:04:36;101397.16;;;15.49;100.00
58975;BME280;44751;52.236;5.178;2022-10-16T12:07:15;101403.66;;;15.48;100.00
58975;BME280;44751;52.236;5.178;2022-10-16T12:09:43;101393.94;;;15.68;100.00
58975;BME280;44751;52.236;5.178;2022-10-16T12:12:48;101402.94;;;15.68;100.00
58975;BME280;44751;52.236;5.178;2022-10-16T12:15:32;101412.75;;;15.62;100.00
58975;BME280;44751;52.236;5.178;2022-10-16T12:18:24;101403.34;;;15.65;100.00
58975;BME280;44751;52.236;5.178;2022-10-16T12:20:55;101405.41;;;15.63;100.00
58975;BME280;44751;52.236;5.178;2022-10-16T12:23:24;101404.88;;;15.81;100.00
58975;BME280;44751;52.236;5.178;2022-10-16T12:26:10;101413.88;;;15.75;100.00
58975;BME280;44751;52.236;5.178;2022-10-16T12:28:37;101413.63;;;15.70;100.00
58975;BME280;44751;52.236;5.178;2022-10-16T12:31:35;101414.50;;;15.77;100.00
58975;BME280;44751;52.236;5.178;2022-10-16T12:34:23;101418.25;;;15.76;100.00
58975;BME280;44751;52.236;5.178;2022-10-16T12:36:56;101425.38;;;15.77;100.00
58975;BME280;44751;52.236;5.178;2022-10-16T12:39:35;101421.69;;;15.92;100.00
58975;BME280;44751;52.236;5.178;2022-10-16T12:42:21;101421.47;;;15.86;100.00
58975;BME280;44751;52.236;5.178;2022-10-16T12:44:48;101423.38;;;15.93;100.00
58975;BME280;44751;52.236;5.178;2022-10-16T12:49:58;101421.03;;;15.90;100.00
58975;BME280;44751;52.236;5.178;2022-10-16T12:52:36;101420.97;;;15.76;100.00
58975;BME280;44751;52.236;5.178;2022-10-16T12:55:05;101433.50;;;15.70;100.00
58975;BME280;44751;52.236;5.178;2022-10-16T13:00:44;101422.00;;;15.68;100.00
58975;BME280;44751;52.236;5.178;2022-10-16T13:09:02;101433.34;;;15.79;100.00
58975;BME280;44751;52.236;5.178;2022-10-16T13:19:36;101427.69;;;15.80;100.00
58975;BME280;44751;52.236;5.178;2022-10-16T13:22:25;101440.44;;;15.80;100.00
58975;BME280;44751;52.236;5.178;2022-10-16T13:25:22;101445.84;;;15.73;100.00
58975;BME280;44751;52.236;5.178;2022-10-16T13:28:06;101442.13;;;15.74;100.00
58975;BME280;44751;52.236;5.178;2022-10-16T13:33:13;101448.56;;;15.73;100.00
58975;BME280;44751;52.236;5.178;2022-10-16T13:35:52;101457.00;;;15.78;100.00
58975;BME280;44751;52.236;5.178;2022-10-16T13:38:21;101461.34;;;16.01;100.00
58975;BME280;44751;52.236;5.178;2022-10-16T13:43:21;101458.88;;;16.06;100.00
58975;BME280;44751;52.236;5.178;2022-10-16T13:45:56;101463.63;;;15.97;100.00
58975;BME280;44751;52.236;5.178;2022-10-16T13:48:24;101462.72;;;15.90;100.00
58975;BME280;44751;52.236;5.178;2022-10-16T13:53:26;101468.25;;;16.04;100.00
58975;BME280;44751;52.236;5.178;2022-10-16T13:55:56;101469.09;;;16.04;100.00
58975;BME280;44751;52.236;5.178;2022-10-16T13:58:22;101466.38;;;16.04;100.00
58975;BME280;44751;52.236;5.178;2022-10-16T14:01:22;101472.69;;;16.05;100.00
58975;BME280;44751;52.236;5.178;2022-10-16T14:03:46;101482.13;;;16.09;100.00
58975;BME280;44751;52.236;5.178;2022-10-16T14:06:16;101480.00;;;16.04;100.00
58975;BME280;44751;52.236;5.178;2022-10-16T14:08:53;101472.34;;;15.93;100.00
58975;BME280;44751;52.236;5.178;2022-10-16T14:11:24;101484.38;;;16.05;100.00
58975;BME280;44751;52.236;5.178;2022-10-16T14:13:51;101483.97;;;16.02;100.00
58975;BME280;44751;52.236;5.178;2022-10-16T14:16:26;101482.28;;;16.00;100.00
58975;BME280;44751;52.236;5.178;2022-10-16T14:18:58;101476.06;;;16.13;100.00
58975;BME280;44751;52.236;5.178;2022-10-16T14:21:26;101475.13;;;15.99;100.00
58975;BME280;44751;52.236;5.178;2022-10-16T14:23:53;101467.75;;;15.93;100.00
58975;BME280;44751;52.236;5.178;2022-10-16T14:26:41;101464.53;;;15.83;100.00
58975;BME280;44751;52.236;5.178;2022-10-16T14:29:14;101469.00;;;15.91;100.00
58975;BME280;44751;52.236;5.178;2022-10-16T14:31:59;101469.00;;;15.91;100.00
58975;BME280;44751;52.236;5.178;2022-10-16T14:37:00;101471.06;;;15.88;100.00
58975;BME280;44751;52.236;5.178;2022-10-16T14:39:32;101476.59;;;15.95;100.00
58975;BME280;44751;52.236;5.178;2022-10-16T14:41:59;101485.00;;;16.00;100.00
58975;BME280;44751;52.236;5.178;2022-10-16T14:44:55;101485.22;;;15.99;100.00
58975;BME280;44751;52.236;5.178;2022-10-16T14:47:25;101488.88;;;15.91;100.00
58975;BME280;44751;52.236;5.178;2022-10-16T14:49:53;101483.78;;;15.81;100.00
58975;BME280;44751;52.236;5.178;2022-10-16T14:52:23;101488.00;;;15.84;100.00
58975;BME280;44751;52.236;5.178;2022-10-16T14:54:50;101481.03;;;15.74;100.00
58975;BME280;44751;52.236;5.178;2022-10-16T14:57:22;101481.63;;;15.70;100.00
58975;BME280;44751;52.236;5.178;2022-10-16T14:59:51;101482.50;;;15.77;100.00
58975;BME280;44751;52.236;5.178;2022-10-16T15:04:47;101487.72;;;15.72;100.00
58975;BME280;44751;52.236;5.178;2022-10-16T15:07:17;101489.53;;;15.65;100.00
58975;BME280;44751;52.236;5.178;2022-10-16T15:09:44;101494.97;;;15.65;100.00
58975;BME280;44751;52.236;5.178;2022-10-16T15:12:11;101483.91;;;15.66;100.00
58975;BME280;44751;52.236;5.178;2022-10-16T15:14:37;101490.22;;;15.73;100.00
58975;BME280;44751;52.236;5.178;2022-10-16T15:17:04;101491.16;;;15.59;100.00
58975;BME280;44751;52.236;5.178;2022-10-16T15:19:31;101472.38;;;15.64;100.00
58975;BME280;44751;52.236;5.178;2022-10-16T15:22:04;101479.91;;;15.62;100.00
58975;BME280;44751;52.236;5.178;2022-10-16T15:24:30;101478.38;;;15.53;100.00
58975;BME280;44751;52.236;5.178;2022-10-16T15:26:56;101479.19;;;15.53;100.00
58975;BME280;44751;52.236;5.178;2022-10-16T15:29:23;101481.47;;;15.49;100.00
58975;BME280;44751;52.236;5.178;2022-10-16T15:31:49;101489.78;;;15.41;100.00
58975;BME280;44751;52.236;5.178;2022-10-16T15:34:22;101475.84;;;15.29;100.00
58975;BME280;44751;52.236;5.178;2022-10-16T15:36:49;101474.19;;;15.28;100.00
58975;BME280;44751;52.236;5.178;2022-10-16T15:39:18;101474.78;;;15.23;100.00
58975;BME280;44751;52.236;5.178;2022-10-16T15:41:46;101479.13;;;15.18;100.00
58975;BME280;44751;52.236;5.178;2022-10-16T15:44:16;101486.22;;;15.19;100.00
58975;BME280;44751;52.236;5.178;2022-10-16T15:46:43;101473.16;;;15.07;100.00
58975;BME280;44751;52.236;5.178;2022-10-16T15:49:10;101473.41;;;15.13;100.00
58975;BME280;44751;52.236;5.178;2022-10-16T15:51:38;101474.63;;;15.10;100.00
58975;BME280;44751;52.236;5.178;2022-10-16T15:54:08;101477.53;;;15.08;100.00
58975;BME280;44751;52.236;5.178;2022-10-16T15:56:38;101477.66;;;15.00;100.00
58975;BME280;44751;52.236;5.178;2022-10-16T15:59:04;101468.53;;;14.86;100.00
58975;BME280;44751;52.236;5.178;2022-10-16T16:01:33;101476.97;;;14.91;100.00
58975;BME280;44751;52.236;5.178;2022-10-16T16:03:59;101490.88;;;14.81;100.00
58975;BME280;44751;52.236;5.178;2022-10-16T16:06:26;101488.25;;;14.73;100.00
58975;BME280;44751;52.236;5.178;2022-10-16T16:08:53;101492.06;;;14.79;100.00
58975;BME280;44751;52.236;5.178;2022-10-16T16:11:20;101504.53;;;14.73;100.00
58975;BME280;44751;52.236;5.178;2022-10-16T16:13:48;101508.66;;;14.69;100.00
58975;BME280;44751;52.236;5.178;2022-10-16T16:16:16;101504.44;;;14.66;100.00
58975;BME280;44751;52.236;5.178;2022-10-16T16:18:45;101499.13;;;14.58;100.00
58975;BME280;44751;52.236;5.178;2022-10-16T16:21:14;101506.91;;;14.46;100.00
58975;BME280;44751;52.236;5.178;2022-10-16T16:23:41;101496.72;;;14.33;100.00
58975;BME280;44751;52.236;5.178;2022-10-16T16:28:52;101496.66;;;14.11;100.00
58975;BME280;44751;52.236;5.178;2022-10-16T16:31:19;101489.50;;;13.95;100.00
58975;BME280;44751;52.236;5.178;2022-10-16T16:33:46;101498.69;;;13.94;100.00
58975;BME280;44751;52.236;5.178;2022-10-16T16:36:13;101499.06;;;13.91;100.00
58975;BME280;44751;52.236;5.178;2022-10-16T16:38:42;101489.16;;;13.83;100.00
58975;BME280;44751;52.236;5.178;2022-10-16T16:41:20;101498.69;;;13.79;100.00
58975;BME280;44751;52.236;5.178;2022-10-16T16:43:47;101490.19;;;13.82;100.00
58975;BME280;44751;52.236;5.178;2022-10-16T16:46:18;101508.09;;;13.68;100.00
58975;BME280;44751;52.236;5.178;2022-10-16T16:48:48;101503.59;;;13.60;100.00
58975;BME280;44751;52.236;5.178;2022-10-16T16:51:17;101516.19;;;13.53;100.00
58975;BME280;44751;52.236;5.178;2022-10-16T16:53:49;101525.22;;;13.45;100.00
58975;BME280;44751;52.236;5.178;2022-10-16T16:56:20;101530.81;;;13.43;100.00
58975;BME280;44751;52.236;5.178;2022-10-16T16:58:54;101537.44;;;13.41;100.00
58975;BME280;44751;52.236;5.178;2022-10-16T17:01:23;101540.97;;;13.41;100.00
58975;BME280;44751;52.236;5.178;2022-10-16T17:03:51;101535.19;;;13.45;100.00
58975;BME280;44751;52.236;5.178;2022-10-16T17:06:26;101531.44;;;13.54;100.00
58975;BME280;44751;52.236;5.178;2022-10-16T17:08:55;101537.16;;;13.36;100.00
58975;BME280;44751;52.236;5.178;2022-10-16T17:11:23;101522.91;;;13.34;100.00
58975;BME280;44751;52.236;5.178;2022-10-16T17:13:51;101525.63;;;13.34;100.00
58975;BME280;44751;52.236;5.178;2022-10-16T17:16:33;101523.59;;;13.36;100.00
58975;BME280;44751;52.236;5.178;2022-10-16T17:19:05;101528.88;;;13.29;100.00
58975;BME280;44751;52.236;5.178;2022-10-16T17:21:34;101527.38;;;13.26;100.00
58975;BME280;44751;52.236;5.178;2022-10-16T17:24:02;101529.38;;;13.33;100.00
58975;BME280;44751;52.236;5.178;2022-10-16T17:26:32;101521.72;;;13.36;100.00
58975;BME280;44751;52.236;5.178;2022-10-16T17:29:03;101547.03;;;13.28;100.00
58975;BME280;44751;52.236;5.178;2022-10-16T17:31:34;101545.31;;;13.27;100.00
58975;BME280;44751;52.236;5.178;2022-10-16T17:34:03;101546.34;;;13.26;100.00
58975;BME280;44751;52.236;5.178;2022-10-16T17:36:32;101554.47;;;13.26;100.00
58975;BME280;44751;52.236;5.178;2022-10-16T17:39:07;101557.25;;;13.18;100.00
58975;BME280;44751;52.236;5.178;2022-10-16T17:41:36;101559.78;;;13.20;100.00
58975;BME280;44751;52.236;5.178;2022-10-16T17:44:04;101560.28;;;13.15;100.00
58975;BME280;44751;52.236;5.178;2022-10-16T17:46:31;101562.00;;;13.16;100.00
58975;BME280;44751;52.236;5.178;2022-10-16T17:48:58;101557.53;;;13.23;100.00
58975;BME280;44751;52.236;5.178;2022-10-16T17:51:30;101558.25;;;13.17;100.00
58975;BME280;44751;52.236;5.178;2022-10-16T17:53:59;101561.28;;;13.22;100.00
58975;BME280;44751;52.236;5.178;2022-10-16T17:56:27;101560.97;;;13.17;100.00
58975;BME280;44751;52.236;5.178;2022-10-16T17:58:59;101552.00;;;13.16;100.00
58975;BME280;44751;52.236;5.178;2022-10-16T18:01:34;101552.16;;;13.15;100.00
58975;BME280;44751;52.236;5.178;2022-10-16T18:04:10;101564.25;;;13.04;100.00
58975;BME280;44751;52.236;5.178;2022-10-16T18:06:38;101567.28;;;13.09;100.00
58975;BME280;44751;52.236;5.178;2022-10-16T18:09:06;101559.66;;;13.13;100.00
58975;BME280;44751;52.236;5.178;2022-10-16T18:11:33;101560.28;;;13.15;100.00
58975;BME280;44751;52.236;5.178;2022-10-16T18:14:00;101565.41;;;13.10;100.00
58975;BME280;44751;52.236;5.178;2022-10-16T18:16:28;101556.94;;;13.13;100.00
58975;BME280;44751;52.236;5.178;2022-10-16T18:18:58;101563.69;;;13.17;100.00
58975;BME280;44751;52.236;5.178;2022-10-16T18:21:26;101569.22;;;13.24;100.00
58975;BME280;44751;52.236;5.178;2022-10-16T18:23:57;101568.75;;;13.20;100.00
58975;BME280;44751;52.236;5.178;2022-10-16T18:26:24;101580.63;;;13.11;100.00
58975;BME280;44751;52.236;5.178;2022-10-16T18:28:52;101588.25;;;13.15;100.00
58975;BME280;44751;52.236;5.178;2022-10-16T18:31:23;101585.38;;;13.17;100.00
58975;BME280;44751;52.236;5.178;2022-10-16T18:33:50;101602.09;;;13.21;100.00
58975;BME280;44751;52.236;5.178;2022-10-16T18:36:21;101593.50;;;13.17;100.00
58975;BME280;44751;52.236;5.178;2022-10-16T18:38:48;101601.91;;;13.22;100.00
58975;BME280;44751;52.236;5.178;2022-10-16T18:41:19;101601.41;;;13.27;100.00
58975;BME280;44751;52.236;5.178;2022-10-16T18:43:45;101609.53;;;13.27;100.00
58975;BME280;44751;52.236;5.178;2022-10-16T18:46:17;101606.06;;;13.33;100.00
58975;BME280;44751;52.236;5.178;2022-10-16T18:48:45;101605.72;;;13.36;100.00
58975;BME280;44751;52.236;5.178;2022-10-16T18:51:20;101603.53;;;13.40;100.00
58975;BME280;44751;52.236;5.178;2022-10-16T18:53:50;101601.28;;;13.43;100.00
58975;BME280;44751;52.236;5.178;2022-10-16T18:56:19;101599.75;;;13.49;100.00
58975;BME280;44751;52.236;5.178;2022-10-16T18:59:12;101591.47;;;13.42;100.00
58975;BME280;44751;52.236;5.178;2022-10-16T19:01:49;101595.06;;;13.35;100.00
58975;BME280;44751;52.236;5.178;2022-10-16T19:04:19;101592.84;;;13.38;100.00
58975;BME280;44751;52.236;5.178;2022-10-16T19:06:49;101593.38;;;13.34;100.00
58975;BME280;44751;52.236;5.178;2022-10-16T19:09:26;101594.41;;;13.33;100.00
58975;BME280;44751;52.236;5.178;2022-10-16T19:11:53;101595.19;;;13.41;100.00
58975;BME280;44751;52.236;5.178;2022-10-16T19:14:21;101599.84;;;13.33;100.00
58975;BME280;44751;52.236;5.178;2022-10-16T19:16:49;101605.78;;;13.28;100.00
58975;BME280;44751;52.236;5.178;2022-10-16T19:19:17;101598.00;;;13.25;100.00
58975;BME280;44751;52.236;5.178;2022-10-16T19:21:43;101590.03;;;13.32;100.00
58975;BME280;44751;52.236;5.178;2022-10-16T19:24:13;101591.59;;;13.26;100.00
58975;BME280;44751;52.236;5.178;2022-10-16T19:26:43;101589.69;;;13.26;100.00
58975;BME280;44751;52.236;5.178;2022-10-16T19:29:16;101610.16;;;13.29;100.00
58975;BME280;44751;52.236;5.178;2022-10-16T19:31:42;101604.28;;;13.25;100.00
58975;BME280;44751;52.236;5.178;2022-10-16T19:34:09;101608.03;;;13.24;100.00
58975;BME280;44751;52.236;5.178;2022-10-16T19:36:37;101624.09;;;13.26;100.00
58975;BME280;44751;52.236;5.178;2022-10-16T19:39:06;101619.69;;;13.25;100.00